Capewater — PBPQ — position and weather

sailwx.info

Track history (hours):
 
Tides and Currents Weather Stations Pressure Air Temp Water Temp Dewpoint Dewpoint Depression Visibility Wind Speed Wind Dir Waves Ship Positions

Capewater

Last reported at 2015-Jan-28 08:33 UTC. Time now 2015-Jan-28 09:20 UTC.
Position N 51°16' E 004°22'.

Length 100 m; draft 7 m.

Type: Tanker. MMSI: 246346000.

Date/timePositionNaut miles runAvg speedWind from/ knotsBaromVisibWave heightAir tempDewpointWater temp
2015-Jan-28 08:33N 51°16' E 004°22'0 0.0
2015-Jan-28 07:33N 51°16' E 004°22'0 0.0
2015-Jan-28 06:33N 51°16' E 004°22'0 0.0
2015-Jan-28 05:30N 51°16' E 004°22'0 0.0
2015-Jan-28 04:33N 51°16' E 004°22'0 0.0
2015-Jan-28 03:33N 51°16' E 004°22'0 0.0
2015-Jan-28 02:33N 51°16' E 004°22'0 0.0
2015-Jan-28 01:33N 51°16' E 004°22'0 0.0
2015-Jan-28 00:30N 51°16' E 004°22'0 0.0
2015-Jan-27 23:33N 51°16' E 004°22'0 0.0
2015-Jan-27 22:33N 51°16' E 004°22'2 1.9
2015-Jan-27 21:34N 51°17' E 004°20'4 4.2
2015-Jan-27 20:33N 51°21' E 004°17'1 1.2
2015-Jan-27 19:34N 51°21' E 004°15'9 8.8
2015-Jan-27 18:33N 51°24' E 004°02'1211.7
2015-Jan-27 17:33N 51°23' E 003°43'1312.6
2015-Jan-27 16:33N 51°30' E 003°27'1313.0
2015-Jan-27 15:33N 51°41' E 003°16'11711.7
2015-Jan-27 05:31N 53°28' E 004°34'2812.0
2015-Jan-27 03:08N 53°55' E 004°50'711.0
2015-Jan-27 02:33N 54°01' E 004°54'1010.3
2015-Jan-27 01:33N 54°10' E 005°02'10 9.8
2015-Jan-27 00:30N 54°19' E 005°13'8410.2
2015-Jan-26 16:15N 55°30' E 006°29'11711.0
2015-Jan-26 05:33N 57°11' E 008°16'1110.4
2015-Jan-26 04:32N 57°19' E 008°30'6711.2
2015-Jan-25 22:33N 57°48' E 010°22'1212.0
2015-Jan-25 21:33N 57°50' E 010°44'1212.0
2015-Jan-25 20:33N 57°51' E 011°06'1212.3
2015-Jan-25 19:33N 57°53' E 011°29'1212.2
2015-Jan-25 18:33N 58°01' E 011°46'5 4.0
2015-Jan-25 17:21N 58°05' E 011°49'0 0.0
2015-Jan-25 16:33N 58°05' E 011°49'0 0.0
2015-Jan-25 15:33N 58°05' E 011°49'0 0.0
2015-Jan-25 14:33N 58°05' E 011°49'0 0.0
2015-Jan-25 13:18N 58°05' E 011°49'0 0.0
2015-Jan-25 03:30N 58°05' E 011°49'0 0.0
2015-Jan-25 02:33N 58°05' E 011°49'0 0.0
2015-Jan-25 01:18N 58°05' E 011°49'0 0.0
2015-Jan-25 00:27N 58°05' E 011°49'0 0.0
2015-Jan-24 23:33N 58°05' E 011°49'0 0.0
2015-Jan-24 22:18N 58°05' E 011°49'0 0.0
2015-Jan-24 21:31N 58°05' E 011°49'5 5.2
2015-Jan-24 20:33N 58°01' E 011°46'1414.1
2015-Jan-24 19:34N 57°51' E 011°27'5 5.0
2015-Jan-24 18:34N 57°51' E 011°17'4 4.2
2015-Jan-24 17:34N 57°51' E 011°09'5 4.7
2015-Jan-24 16:34N 57°51' E 011°01'4 4.3
2015-Jan-24 15:34N 57°51' E 010°52'4 4.1
2015-Jan-24 14:33N 57°51' E 010°45'4 4.3
2015-Jan-24 13:34N 57°51' E 010°37'5 4.8
2015-Jan-24 12:34N 57°51' E 010°28'5 4.8
2015-Jan-24 11:32N 57°51' E 010°18'38512.0
2015-Jan-23 03:26N 54°58' W 000°04'1212.8
2015-Jan-23 02:30N 54°53' W 000°23'1212.7
2015-Jan-23 01:32N 54°48' W 000°43'1212.6
2015-Jan-23 00:33N 54°43' W 001°02'9 0.8
2015-Jan-22 14:12N 54°36' W 001°11'0 0.0
2015-Jan-22 12:12N 54°36' W 001°11'0 0.0
2015-Jan-22 10:27N 54°36' W 001°11'3 0.3
2015-Jan-21 21:10N 54°39' W 001°08'3 4.0
2015-Jan-21 20:32N 54°40' W 001°04'0 0.1
2015-Jan-21 18:25N 54°40' W 001°05'0 0.1
2015-Jan-21 17:10N 54°40' W 001°04'0 0.0
2015-Jan-21 16:28N 54°40' W 001°04'0 0.0
2015-Jan-21 15:28N 54°40' W 001°04'0 0.1
2015-Jan-21 14:11N 54°40' W 001°04'0 0.1
2015-Jan-21 13:31N 54°40' W 001°05'0 0.0
2015-Jan-21 12:31N 54°40' W 001°05'0 0.0
2015-Jan-21 11:31N 54°40' W 001°05'0 0.0
2015-Jan-21 10:28N 54°40' W 001°05'0 0.1
2015-Jan-21 09:31N 54°40' W 001°04'0 0.0
2015-Jan-21 08:16N 54°40' W 001°04'0 0.0
2015-Jan-21 07:16N 54°40' W 001°04'0 0.0
2015-Jan-21 06:31N 54°40' W 001°04'0 0.0
2015-Jan-21 05:31N 54°40' W 001°04'0 0.1
2015-Jan-21 04:31N 54°40' W 001°04'0 0.0
2015-Jan-21 03:28N 54°40' W 001°04'0 0.1
2015-Jan-21 02:31N 54°40' W 001°04'0 0.1
2015-Jan-21 01:31N 54°40' W 001°04'0 0.0
2015-Jan-21 00:28N 54°40' W 001°04'0 0.0
2015-Jan-20 23:28N 54°40' W 001°04'0 0.0
2015-Jan-20 22:31N 54°40' W 001°04'0 0.0
2015-Jan-20 21:31N 54°40' W 001°04'0 0.0
2015-Jan-20 20:31N 54°40' W 001°04'0 0.0
2015-Jan-20 19:31N 54°40' W 001°04'0 0.0
2015-Jan-20 18:19N 54°40' W 001°04'0 0.1
2015-Jan-20 17:19N 54°40' W 001°04'0 0.1
2015-Jan-20 16:31N 54°40' W 001°04'0 0.0
2015-Jan-20 15:31N 54°40' W 001°04'0 0.0
2015-Jan-20 14:31N 54°40' W 001°04'0 0.0
2015-Jan-20 13:31N 54°40' W 001°04'2 2.5
2015-Jan-20 12:33N 54°39' W 001°00'1612.4
2015-Jan-20 11:16N 54°35' W 000°34'1013.5
2015-Jan-20 10:34N 54°29' W 000°20'1414.3
2015-Jan-20 09:34N 54°18' W 000°05'1414.3
2015-Jan-20 08:33N 54°06' E 000°08'1413.9
2015-Jan-20 07:33N 53°53' E 000°16'1313.2
2015-Jan-20 06:33N 53°40' E 000°24'1111.1
2015-Jan-20 05:33N 53°33' E 000°10'1212.6
2015-Jan-20 04:33N 53°38' W 000°09'1 1.3
2015-Jan-20 03:26N 53°38' W 000°11'0 0.0
2015-Jan-20 02:32N 53°38' W 000°11'0 0.0
2015-Jan-20 01:29N 53°38' W 000°11'0 0.0
2015-Jan-20 00:29N 53°38' W 000°11'0 0.0
2015-Jan-19 23:32N 53°38' W 000°11'0 0.0
2015-Jan-19 22:32N 53°38' W 000°11'0 0.0
2015-Jan-19 21:32N 53°38' W 000°11'0 0.0
2015-Jan-19 20:32N 53°38' W 000°11'0 0.0
2015-Jan-19 19:32N 53°38' W 000°11'0 0.0
2015-Jan-19 18:32N 53°38' W 000°11'0 0.0
2015-Jan-19 17:32N 53°38' W 000°11'0 0.0
2015-Jan-19 16:32N 53°38' W 000°11'0 0.0
2015-Jan-19 15:32N 53°38' W 000°11'0 0.0
2015-Jan-19 14:32N 53°38' W 000°11'0 0.0
2015-Jan-19 13:32N 53°38' W 000°11'0 0.0
2015-Jan-19 12:26N 53°38' W 000°11'0 0.0
2015-Jan-19 11:32N 53°38' W 000°11'0 0.0
2015-Jan-19 10:32N 53°38' W 000°11'0 0.0
2015-Jan-19 09:32N 53°38' W 000°11'0 0.0
2015-Jan-19 08:32N 53°38' W 000°11'0 0.0
2015-Jan-19 07:32N 53°38' W 000°11'0 0.0
2015-Jan-19 06:32N 53°38' W 000°11'0 0.0
2015-Jan-19 05:29N 53°38' W 000°11'0 0.0
2015-Jan-19 04:32N 53°38' W 000°11'0 0.0
2015-Jan-19 03:32N 53°38' W 000°11'0 0.0
2015-Jan-19 02:32N 53°38' W 000°11'0 0.0
2015-Jan-19 01:32N 53°38' W 000°11'0 0.0
2015-Jan-19 00:32N 53°38' W 000°11'1 1.4
2015-Jan-18 23:34N 53°38' W 000°09'1211.9
2015-Jan-18 22:34N 53°33' E 000°09'10 9.6
2015-Jan-18 21:33N 53°34' E 000°25'2 1.8
2015-Jan-18 20:32N 53°36' E 000°27'0 0.0
2015-Jan-18 19:20N 53°36' E 000°27'0 0.1
2015-Jan-18 18:26N 53°36' E 000°27'0 0.1
2015-Jan-18 17:27N 53°36' E 000°27'0 0.0
2015-Jan-18 16:32N 53°36' E 000°27'0 0.0
2015-Jan-18 15:26N 53°36' E 000°27'0 0.0
2015-Jan-18 14:32N 53°36' E 000°27'0 0.0
2015-Jan-18 13:32N 53°36' E 000°27'0 0.0
2015-Jan-18 12:26N 53°36' E 000°27'0 0.0
2015-Jan-18 11:29N 53°36' E 000°27'0 0.1
2015-Jan-18 10:32N 53°36' E 000°27'0 0.0
2015-Jan-18 09:29N 53°36' E 000°27'  
Track history (hours):
 
Tides and Currents Weather Stations Pressure Air Temp Water Temp Dewpoint Dewpoint Depression Visibility Wind Speed Wind Dir Waves Ship Positions

Capewater

Last reported at 2015-Jan-28 08:33 UTC. Time now 2015-Jan-28 09:20 UTC.
Position N 51°16' E 004°22'.

Length 100 m; draft 7 m.

Type: Tanker. MMSI: 246346000.

Date/timePositionNaut miles runAvg speedWind from/ knotsBaromVisibWave heightAir tempDewpointWater temp
2015-Jan-28 08:33N 51°16' E 004°22'0 0.0
2015-Jan-28 07:33N 51°16' E 004°22'0 0.0
2015-Jan-28 06:33N 51°16' E 004°22'0 0.0
2015-Jan-28 05:30N 51°16' E 004°22'0 0.0
2015-Jan-28 04:33N 51°16' E 004°22'0 0.0
2015-Jan-28 03:33N 51°16' E 004°22'0 0.0
2015-Jan-28 02:33N 51°16' E 004°22'0 0.0
2015-Jan-28 01:33N 51°16' E 004°22'0 0.0
2015-Jan-28 00:30N 51°16' E 004°22'0 0.0
2015-Jan-27 23:33N 51°16' E 004°22'0 0.0
2015-Jan-27 22:33N 51°16' E 004°22'2 1.9
2015-Jan-27 21:34N 51°17' E 004°20'4 4.2
2015-Jan-27 20:33N 51°21' E 004°17'1 1.2
2015-Jan-27 19:34N 51°21' E 004°15'9 8.8
2015-Jan-27 18:33N 51°24' E 004°02'1211.7
2015-Jan-27 17:33N 51°23' E 003°43'1312.6
2015-Jan-27 16:33N 51°30' E 003°27'1313.0
2015-Jan-27 15:33N 51°41' E 003°16'11711.7
2015-Jan-27 05:31N 53°28' E 004°34'2812.0
2015-Jan-27 03:08N 53°55' E 004°50'711.0
2015-Jan-27 02:33N 54°01' E 004°54'1010.3
2015-Jan-27 01:33N 54°10' E 005°02'10 9.8
2015-Jan-27 00:30N 54°19' E 005°13'8410.2
2015-Jan-26 16:15N 55°30' E 006°29'11711.0
2015-Jan-26 05:33N 57°11' E 008°16'1110.4
2015-Jan-26 04:32N 57°19' E 008°30'6711.2
2015-Jan-25 22:33N 57°48' E 010°22'1212.0
2015-Jan-25 21:33N 57°50' E 010°44'1212.0
2015-Jan-25 20:33N 57°51' E 011°06'1212.3
2015-Jan-25 19:33N 57°53' E 011°29'1212.2
2015-Jan-25 18:33N 58°01' E 011°46'5 4.0
2015-Jan-25 17:21N 58°05' E 011°49'0 0.0
2015-Jan-25 16:33N 58°05' E 011°49'0 0.0
2015-Jan-25 15:33N 58°05' E 011°49'0 0.0
2015-Jan-25 14:33N 58°05' E 011°49'0 0.0
2015-Jan-25 13:18N 58°05' E 011°49'0 0.0
2015-Jan-25 03:30N 58°05' E 011°49'0 0.0
2015-Jan-25 02:33N 58°05' E 011°49'0 0.0
2015-Jan-25 01:18N 58°05' E 011°49'0 0.0
2015-Jan-25 00:27N 58°05' E 011°49'0 0.0
2015-Jan-24 23:33N 58°05' E 011°49'0 0.0
2015-Jan-24 22:18N 58°05' E 011°49'0 0.0
2015-Jan-24 21:31N 58°05' E 011°49'5 5.2
2015-Jan-24 20:33N 58°01' E 011°46'1414.1
2015-Jan-24 19:34N 57°51' E 011°27'5 5.0
2015-Jan-24 18:34N 57°51' E 011°17'4 4.2
2015-Jan-24 17:34N 57°51' E 011°09'5 4.7
2015-Jan-24 16:34N 57°51' E 011°01'4 4.3
2015-Jan-24 15:34N 57°51' E 010°52'4 4.1
2015-Jan-24 14:33N 57°51' E 010°45'4 4.3
2015-Jan-24 13:34N 57°51' E 010°37'5 4.8
2015-Jan-24 12:34N 57°51' E 010°28'5 4.8
2015-Jan-24 11:32N 57°51' E 010°18'38512.0
2015-Jan-23 03:26N 54°58' W 000°04'1212.8
2015-Jan-23 02:30N 54°53' W 000°23'1212.7
2015-Jan-23 01:32N 54°48' W 000°43'1212.6
2015-Jan-23 00:33N 54°43' W 001°02'9 0.8
2015-Jan-22 14:12N 54°36' W 001°11'0 0.0
2015-Jan-22 12:12N 54°36' W 001°11'0 0.0
2015-Jan-22 10:27N 54°36' W 001°11'3 0.3
2015-Jan-21 21:10N 54°39' W 001°08'3 4.0
2015-Jan-21 20:32N 54°40' W 001°04'0 0.1
2015-Jan-21 18:25N 54°40' W 001°05'0 0.1
2015-Jan-21 17:10N 54°40' W 001°04'0 0.0
2015-Jan-21 16:28N 54°40' W 001°04'0 0.0
2015-Jan-21 15:28N 54°40' W 001°04'0 0.1
2015-Jan-21 14:11N 54°40' W 001°04'0 0.1
2015-Jan-21 13:31N 54°40' W 001°05'0 0.0
2015-Jan-21 12:31N 54°40' W 001°05'0 0.0
2015-Jan-21 11:31N 54°40' W 001°05'0 0.0
2015-Jan-21 10:28N 54°40' W 001°05'0 0.1
2015-Jan-21 09:31N 54°40' W 001°04'0 0.0
2015-Jan-21 08:16N 54°40' W 001°04'0 0.0
2015-Jan-21 07:16N 54°40' W 001°04'0 0.0
2015-Jan-21 06:31N 54°40' W 001°04'0 0.0
2015-Jan-21 05:31N 54°40' W 001°04'0 0.1
2015-Jan-21 04:31N 54°40' W 001°04'0 0.0
2015-Jan-21 03:28N 54°40' W 001°04'0 0.1
2015-Jan-21 02:31N 54°40' W 001°04'0 0.1
2015-Jan-21 01:31N 54°40' W 001°04'0 0.0
2015-Jan-21 00:28N 54°40' W 001°04'0 0.0
2015-Jan-20 23:28N 54°40' W 001°04'0 0.0
2015-Jan-20 22:31N 54°40' W 001°04'0 0.0
2015-Jan-20 21:31N 54°40' W 001°04'0 0.0
2015-Jan-20 20:31N 54°40' W 001°04'0 0.0
2015-Jan-20 19:31N 54°40' W 001°04'0 0.0
2015-Jan-20 18:19N 54°40' W 001°04'0 0.1
2015-Jan-20 17:19N 54°40' W 001°04'0 0.1
2015-Jan-20 16:31N 54°40' W 001°04'0 0.0
2015-Jan-20 15:31N 54°40' W 001°04'0 0.0
2015-Jan-20 14:31N 54°40' W 001°04'0 0.0
2015-Jan-20 13:31N 54°40' W 001°04'2 2.5
2015-Jan-20 12:33N 54°39' W 001°00'1612.4
2015-Jan-20 11:16N 54°35' W 000°34'1013.5
2015-Jan-20 10:34N 54°29' W 000°20'1414.3
2015-Jan-20 09:34N 54°18' W 000°05'1414.3
2015-Jan-20 08:33N 54°06' E 000°08'1413.9
2015-Jan-20 07:33N 53°53' E 000°16'1313.2
2015-Jan-20 06:33N 53°40' E 000°24'1111.1
2015-Jan-20 05:33N 53°33' E 000°10'1212.6
2015-Jan-20 04:33N 53°38' W 000°09'1 1.3
2015-Jan-20 03:26N 53°38' W 000°11'0 0.0
2015-Jan-20 02:32N 53°38' W 000°11'0 0.0
2015-Jan-20 01:29N 53°38' W 000°11'0 0.0
2015-Jan-20 00:29N 53°38' W 000°11'0 0.0
2015-Jan-19 23:32N 53°38' W 000°11'0 0.0
2015-Jan-19 22:32N 53°38' W 000°11'0 0.0
2015-Jan-19 21:32N 53°38' W 000°11'0 0.0
2015-Jan-19 20:32N 53°38' W 000°11'0 0.0
2015-Jan-19 19:32N 53°38' W 000°11'0 0.0
2015-Jan-19 18:32N 53°38' W 000°11'0 0.0
2015-Jan-19 17:32N 53°38' W 000°11'0 0.0
2015-Jan-19 16:32N 53°38' W 000°11'0 0.0
2015-Jan-19 15:32N 53°38' W 000°11'0 0.0
2015-Jan-19 14:32N 53°38' W 000°11'0 0.0
2015-Jan-19 13:32N 53°38' W 000°11'0 0.0
2015-Jan-19 12:26N 53°38' W 000°11'0 0.0
2015-Jan-19 11:32N 53°38' W 000°11'0 0.0
2015-Jan-19 10:32N 53°38' W 000°11'0 0.0
2015-Jan-19 09:32N 53°38' W 000°11'0 0.0
2015-Jan-19 08:32N 53°38' W 000°11'0 0.0
2015-Jan-19 07:32N 53°38' W 000°11'0 0.0
2015-Jan-19 06:32N 53°38' W 000°11'0 0.0
2015-Jan-19 05:29N 53°38' W 000°11'0 0.0
2015-Jan-19 04:32N 53°38' W 000°11'0 0.0
2015-Jan-19 03:32N 53°38' W 000°11'0 0.0
2015-Jan-19 02:32N 53°38' W 000°11'0 0.0
2015-Jan-19 01:32N 53°38' W 000°11'0 0.0
2015-Jan-19 00:32N 53°38' W 000°11'1 1.4
2015-Jan-18 23:34N 53°38' W 000°09'1211.9
2015-Jan-18 22:34N 53°33' E 000°09'10 9.6
2015-Jan-18 21:33N 53°34' E 000°25'2 1.8
2015-Jan-18 20:32N 53°36' E 000°27'0 0.0
2015-Jan-18 19:20N 53°36' E 000°27'0 0.1
2015-Jan-18 18:26N 53°36' E 000°27'0 0.1
2015-Jan-18 17:27N 53°36' E 000°27'0 0.0
2015-Jan-18 16:32N 53°36' E 000°27'0 0.0
2015-Jan-18 15:26N 53°36' E 000°27'0 0.0
2015-Jan-18 14:32N 53°36' E 000°27'0 0.0
2015-Jan-18 13:32N 53°36' E 000°27'0 0.0
2015-Jan-18 12:26N 53°36' E 000°27'0 0.0
2015-Jan-18 11:29N 53°36' E 000°27'0 0.1
2015-Jan-18 10:32N 53°36' E 000°27'0 0.0
2015-Jan-18 09:29N 53°36' E 000°27'  

Dump ship's entire track history